Skjern, Denmark
Current Conditions -  °F | °C
As of 9:50 PM on Sunday 21 Dec 2014 (Local Time) from EKBI Reporting Station
Light Rain Light Rain  
Wind Chill: 40°   Ceiling: 500
Heat Index: 46°   Visibility: 2.1mi
Dew Point: 45°   Wind: 16mph
Humidity: 93%   Direction: 240°WSW
Pressure: 29.65"   Gusts: NA
Location:  55.95°N, 8.5°E
Report Text: EKBI 212050Z 24014KT 3500 -DZRA FEW004 BKN005 08/07 Q1004
Loading
Personal Weather Stations






























Interactive Weather Map New forecast layout! Learn more

10-Day Weather Forecast

Advertisements
Track Severe Weather on mobile